Polaris, Montana
Current Conditions -  °F | °C
As of 6:53 AM on Thursday 27 Nov 2014 (Local Time) from KDLN Reporting Station
Few Clouds Few Clouds  
Wind Chill: 37°   Ceiling: Unl
Heat Index: 44°   Visibility: 10mi
Dew Point: 25°   Wind: 15mph
Humidity: 47%   Direction: 190°S
Pressure: 30.06"   Gusts: NA
Location:  45.37°N, 113.12°W
Report Text: KDLN 271353Z AUTO 19013KT 10SM FEW095 07/M04 A3006 RMK AO2 SLP174 T00671039
Loading
Personal Weather Stations






























Interactive Weather Map New forecast layout! Learn more

10-Day Weather Forecast

Advertisements
Track Severe Weather on mobile